sensor_id;sensor_type;location;lat;lon;timestamp;noise_LAeq;noise_LA_min;noise_LA_max;noise_LA01;noise_LA95
76382;Laerm;65202;52.520;10.528;2024-03-25T00:00:14;40.53;34.98;62.71;;
76382;Laerm;65202;52.520;10.528;2024-03-25T00:02:42;39.53;32.53;59.56;;
76382;Laerm;65202;52.520;10.528;2024-03-25T00:05:09;42.09;36.71;63.85;;
76382;Laerm;65202;52.520;10.528;2024-03-25T00:07:39;39.87;36.33;60.55;;
76382;Laerm;65202;52.520;10.528;2024-03-25T00:10:06;39.18;35.09;64.74;;
76382;Laerm;65202;52.520;10.528;2024-03-25T00:12:35;38.89;34.23;50.56;;
76382;Laerm;65202;52.520;10.528;2024-03-25T00:15:02;41.57;34.78;64.80;;
76382;Laerm;65202;52.520;10.528;2024-03-25T00:17:30;38.27;35.00;43.87;;
76382;Laerm;65202;52.520;10.528;2024-03-25T00:19:57;37.46;32.21;44.42;;
76382;Laerm;65202;52.520;10.528;2024-03-25T00:22:24;38.65;34.75;46.81;;
76382;Laerm;65202;52.520;10.528;2024-03-25T00:24:54;38.49;34.41;54.32;;
76382;Laerm;65202;52.520;10.528;2024-03-25T00:27:20;39.49;35.19;60.18;;
76382;Laerm;65202;52.520;10.528;2024-03-25T00:29:47;39.41;35.94;50.98;;
76382;Laerm;65202;52.520;10.528;2024-03-25T00:32:13;40.31;35.46;66.16;;
76382;Laerm;65202;52.520;10.528;2024-03-25T00:34:41;40.56;36.95;48.92;;
76382;Laerm;65202;52.520;10.528;2024-03-25T00:37:08;40.60;36.03;53.56;;
76382;Laerm;65202;52.520;10.528;2024-03-25T00:39:34;39.84;35.53;44.51;;
76382;Laerm;65202;52.520;10.528;2024-03-25T00:42:01;42.39;36.66;63.83;;
76382;Laerm;65202;52.520;10.528;2024-03-25T00:44:27;39.22;35.27;65.23;;
76382;Laerm;65202;52.520;10.528;2024-03-25T00:46:54;41.25;36.45;62.71;;
76382;Laerm;65202;52.520;10.528;2024-03-25T00:49:21;40.39;36.22;45.79;;
76382;Laerm;65202;52.520;10.528;2024-03-25T00:51:48;39.83;36.34;54.62;;
76382;Laerm;65202;52.520;10.528;2024-03-25T00:54:15;39.52;34.76;54.87;;
76382;Laerm;65202;52.520;10.528;2024-03-25T00:56:41;38.99;34.99;60.03;;
76382;Laerm;65202;52.520;10.528;2024-03-25T00:59:08;40.12;36.40;47.31;;
76382;Laerm;65202;52.520;10.528;2024-03-25T01:01:34;41.15;36.02;63.51;;
76382;Laerm;65202;52.520;10.528;2024-03-25T01:04:02;39.78;35.28;44.85;;
76382;Laerm;65202;52.520;10.528;2024-03-25T01:06:30;40.86;36.74;59.46;;
76382;Laerm;65202;52.520;10.528;2024-03-25T01:08:56;42.11;35.98;58.02;;
76382;Laerm;65202;52.520;10.528;2024-03-25T01:11:23;40.42;35.91;58.90;;
76382;Laerm;65202;52.520;10.528;2024-03-25T01:13:49;40.06;34.39;66.26;;
76382;Laerm;65202;52.520;10.528;2024-03-25T01:16:16;39.51;35.09;62.37;;
76382;Laerm;65202;52.520;10.528;2024-03-25T01:18:42;40.48;35.71;66.26;;
76382;Laerm;65202;52.520;10.528;2024-03-25T01:21:09;39.75;35.50;62.41;;
76382;Laerm;65202;52.520;10.528;2024-03-25T01:23:35;41.62;36.54;48.58;;
76382;Laerm;65202;52.520;10.528;2024-03-25T01:26:02;40.34;36.69;59.13;;
76382;Laerm;65202;52.520;10.528;2024-03-25T01:28:29;40.05;35.78;53.40;;
76382;Laerm;65202;52.520;10.528;2024-03-25T01:30:55;38.82;35.62;53.62;;
76382;Laerm;65202;52.520;10.528;2024-03-25T01:33:21;40.07;36.17;54.80;;
76382;Laerm;65202;52.520;10.528;2024-03-25T01:35:48;40.37;36.04;59.51;;
76382;Laerm;65202;52.520;10.528;2024-03-25T01:38:14;39.67;35.80;49.72;;
76382;Laerm;65202;52.520;10.528;2024-03-25T01:40:41;38.99;35.39;54.59;;
76382;Laerm;65202;52.520;10.528;2024-03-25T01:43:08;38.95;35.42;60.76;;
76382;Laerm;65202;52.520;10.528;2024-03-25T01:45:35;40.99;36.92;64.68;;
76382;Laerm;65202;52.520;10.528;2024-03-25T01:48:08;40.10;36.39;48.30;;
76382;Laerm;65202;52.520;10.528;2024-03-25T01:50:43;39.87;35.45;50.78;;
76382;Laerm;65202;52.520;10.528;2024-03-25T01:53:12;39.88;35.89;44.13;;
76382;Laerm;65202;52.520;10.528;2024-03-25T01:55:41;37.86;34.38;43.66;;
76382;Laerm;65202;52.520;10.528;2024-03-25T01:58:09;39.29;35.69;46.42;;
76382;Laerm;65202;52.520;10.528;2024-03-25T02:00:36;38.50;35.47;43.50;;
76382;Laerm;65202;52.520;10.528;2024-03-25T02:03:04;39.16;34.11;64.36;;
76382;Laerm;65202;52.520;10.528;2024-03-25T02:05:34;39.74;35.78;57.40;;
76382;Laerm;65202;52.520;10.528;2024-03-25T02:08:03;38.71;34.72;57.75;;
76382;Laerm;65202;52.520;10.528;2024-03-25T02:10:29;39.50;35.75;52.65;;
76382;Laerm;65202;52.520;10.528;2024-03-25T02:12:56;40.05;35.26;63.83;;
76382;Laerm;65202;52.520;10.528;2024-03-25T02:15:22;39.49;34.96;66.27;;
76382;Laerm;65202;52.520;10.528;2024-03-25T02:17:49;39.13;35.26;61.62;;
76382;Laerm;65202;52.520;10.528;2024-03-25T02:20:15;39.02;34.80;65.16;;
76382;Laerm;65202;52.520;10.528;2024-03-25T02:22:42;38.78;34.14;64.05;;
76382;Laerm;65202;52.520;10.528;2024-03-25T02:25:10;39.22;34.44;63.09;;
76382;Laerm;65202;52.520;10.528;2024-03-25T02:27:38;38.85;35.28;54.51;;
76382;Laerm;65202;52.520;10.528;2024-03-25T02:30:10;40.05;35.06;57.73;;
76382;Laerm;65202;52.520;10.528;2024-03-25T02:32:40;40.38;35.23;67.32;;
76382;Laerm;65202;52.520;10.528;2024-03-25T02:35:12;39.64;35.55;53.39;;
76382;Laerm;65202;52.520;10.528;2024-03-25T02:37:40;39.02;35.89;52.46;;
76382;Laerm;65202;52.520;10.528;2024-03-25T02:40:09;41.05;35.73;66.81;;
76382;Laerm;65202;52.520;10.528;2024-03-25T02:42:36;38.85;35.07;51.40;;
76382;Laerm;65202;52.520;10.528;2024-03-25T02:45:04;39.04;34.97;61.00;;
76382;Laerm;65202;52.520;10.528;2024-03-25T02:47:31;39.72;35.37;51.08;;
76382;Laerm;65202;52.520;10.528;2024-03-25T02:49:58;39.28;35.84;61.50;;
76382;Laerm;65202;52.520;10.528;2024-03-25T02:52:24;39.03;35.56;58.13;;
76382;Laerm;65202;52.520;10.528;2024-03-25T02:54:51;43.24;33.89;66.22;;
76382;Laerm;65202;52.520;10.528;2024-03-25T02:57:17;38.97;35.69;56.01;;
76382;Laerm;65202;52.520;10.528;2024-03-25T02:59:44;37.92;34.96;52.24;;
76382;Laerm;65202;52.520;10.528;2024-03-25T03:02:10;40.04;35.60;61.66;;
76382;Laerm;65202;52.520;10.528;2024-03-25T03:04:36;39.45;36.05;56.40;;
76382;Laerm;65202;52.520;10.528;2024-03-25T03:07:04;40.02;36.43;51.31;;
76382;Laerm;65202;52.520;10.528;2024-03-25T03:09:30;39.76;35.96;44.73;;
76382;Laerm;65202;52.520;10.528;2024-03-25T03:11:57;40.58;36.78;61.09;;
76382;Laerm;65202;52.520;10.528;2024-03-25T03:14:23;39.82;36.32;57.43;;
76382;Laerm;65202;52.520;10.528;2024-03-25T03:16:50;38.76;35.34;48.74;;
76382;Laerm;65202;52.520;10.528;2024-03-25T03:19:21;43.09;35.28;62.87;;
76382;Laerm;65202;52.520;10.528;2024-03-25T03:21:48;48.61;37.56;64.68;;
76382;Laerm;65202;52.520;10.528;2024-03-25T03:24:14;38.57;35.58;50.32;;
76382;Laerm;65202;52.520;10.528;2024-03-25T03:26:41;37.98;34.64;53.72;;
76382;Laerm;65202;52.520;10.528;2024-03-25T03:29:07;39.99;34.65;64.63;;
76382;Laerm;65202;52.520;10.528;2024-03-25T03:31:34;39.15;35.40;44.75;;
76382;Laerm;65202;52.520;10.528;2024-03-25T03:34:00;39.72;36.13;53.94;;
76382;Laerm;65202;52.520;10.528;2024-03-25T03:36:27;39.38;35.91;49.82;;
76382;Laerm;65202;52.520;10.528;2024-03-25T03:38:53;44.97;36.33;61.83;;
76382;Laerm;65202;52.520;10.528;2024-03-25T03:41:20;39.53;35.80;58.03;;
76382;Laerm;65202;52.520;10.528;2024-03-25T03:43:47;40.97;34.70;61.59;;
76382;Laerm;65202;52.520;10.528;2024-03-25T03:46:13;39.01;35.06;55.49;;
76382;Laerm;65202;52.520;10.528;2024-03-25T03:48:40;41.09;35.64;57.21;;
76382;Laerm;65202;52.520;10.528;2024-03-25T03:51:08;38.92;35.67;53.21;;
76382;Laerm;65202;52.520;10.528;2024-03-25T03:53:35;46.22;35.98;62.40;;
76382;Laerm;65202;52.520;10.528;2024-03-25T03:56:04;41.89;37.10;49.76;;
76382;Laerm;65202;52.520;10.528;2024-03-25T03:58:32;39.82;36.13;65.19;;
76382;Laerm;65202;52.520;10.528;2024-03-25T04:01:00;39.79;33.72;64.30;;
76382;Laerm;65202;52.520;10.528;2024-03-25T04:03:26;39.96;35.57;56.87;;
76382;Laerm;65202;52.520;10.528;2024-03-25T04:05:53;41.55;36.93;52.48;;
76382;Laerm;65202;52.520;10.528;2024-03-25T04:08:20;42.37;36.07;55.26;;
76382;Laerm;65202;52.520;10.528;2024-03-25T04:10:47;49.45;36.10;68.69;;
76382;Laerm;65202;52.520;10.528;2024-03-25T04:13:13;45.73;35.87;58.25;;
76382;Laerm;65202;52.520;10.528;2024-03-25T04:15:41;52.28;37.20;70.37;;
76382;Laerm;65202;52.520;10.528;2024-03-25T04:18:08;48.32;37.18;62.97;;
76382;Laerm;65202;52.520;10.528;2024-03-25T04:20:40;46.82;38.41;59.49;;
76382;Laerm;65202;52.520;10.528;2024-03-25T04:23:07;48.01;38.09;61.14;;
76382;Laerm;65202;52.520;10.528;2024-03-25T04:25:34;47.84;37.50;62.15;;
76382;Laerm;65202;52.520;10.528;2024-03-25T04:28:05;48.27;38.53;61.68;;
76382;Laerm;65202;52.520;10.528;2024-03-25T04:30:34;47.53;38.06;68.57;;
76382;Laerm;65202;52.520;10.528;2024-03-25T04:33:01;48.39;38.63;60.52;;
76382;Laerm;65202;52.520;10.528;2024-03-25T04:35:27;48.10;39.44;60.79;;
76382;Laerm;65202;52.520;10.528;2024-03-25T04:37:54;50.56;37.70;73.31;;
76382;Laerm;65202;52.520;10.528;2024-03-25T04:40:23;47.56;37.80;62.11;;
76382;Laerm;65202;52.520;10.528;2024-03-25T04:42:50;47.90;37.27;60.48;;
76382;Laerm;65202;52.520;10.528;2024-03-25T04:45:17;44.91;37.93;60.92;;
76382;Laerm;65202;52.520;10.528;2024-03-25T04:47:43;46.36;37.34;66.43;;
76382;Laerm;65202;52.520;10.528;2024-03-25T04:50:10;48.30;38.14;64.74;;
76382;Laerm;65202;52.520;10.528;2024-03-25T04:52:37;45.79;39.10;54.87;;
76382;Laerm;65202;52.520;10.528;2024-03-25T04:55:03;44.42;38.28;55.81;;
76382;Laerm;65202;52.520;10.528;2024-03-25T04:57:30;41.80;37.15;57.04;;
76382;Laerm;65202;52.520;10.528;2024-03-25T04:59:57;42.33;36.82;58.12;;
76382;Laerm;65202;52.520;10.528;2024-03-25T05:02:24;42.45;37.47;54.40;;
76382;Laerm;65202;52.520;10.528;2024-03-25T05:04:50;47.18;38.37;62.80;;
76382;Laerm;65202;52.520;10.528;2024-03-25T05:07:18;48.22;37.81;65.29;;
76382;Laerm;65202;52.520;10.528;2024-03-25T05:09:45;44.79;38.81;60.27;;
76382;Laerm;65202;52.520;10.528;2024-03-25T05:12:11;48.04;39.36;60.44;;
76382;Laerm;65202;52.520;10.528;2024-03-25T05:14:38;45.59;38.65;60.59;;
76382;Laerm;65202;52.520;10.528;2024-03-25T05:17:04;47.48;38.29;62.09;;
76382;Laerm;65202;52.520;10.528;2024-03-25T05:19:32;45.66;37.14;61.79;;
76382;Laerm;65202;52.520;10.528;2024-03-25T05:21:58;43.93;38.62;53.66;;
76382;Laerm;65202;52.520;10.528;2024-03-25T05:24:24;45.69;37.94;63.50;;
76382;Laerm;65202;52.520;10.528;2024-03-25T05:26:51;50.81;37.32;66.62;;
76382;Laerm;65202;52.520;10.528;2024-03-25T05:29:17;46.22;39.06;56.26;;
76382;Laerm;65202;52.520;10.528;2024-03-25T05:32:01;44.06;38.24;58.52;;
76382;Laerm;65202;52.520;10.528;2024-03-25T05:34:29;43.61;38.59;57.18;;
76382;Laerm;65202;52.520;10.528;2024-03-25T05:36:56;47.73;38.68;62.89;;
76382;Laerm;65202;52.520;10.528;2024-03-25T05:39:23;44.19;38.51;55.95;;
76382;Laerm;65202;52.520;10.528;2024-03-25T05:41:49;44.18;38.43;61.71;;
76382;Laerm;65202;52.520;10.528;2024-03-25T05:44:16;43.76;39.27;54.29;;
76382;Laerm;65202;52.520;10.528;2024-03-25T05:46:43;49.75;38.72;62.35;;
76382;Laerm;65202;52.520;10.528;2024-03-25T05:49:10;44.04;39.13;54.13;;
76382;Laerm;65202;52.520;10.528;2024-03-25T05:51:36;44.10;38.78;54.38;;
76382;Laerm;65202;52.520;10.528;2024-03-25T05:54:03;44.73;38.00;61.18;;
76382;Laerm;65202;52.520;10.528;2024-03-25T05:56:29;47.09;39.20;60.23;;
76382;Laerm;65202;52.520;10.528;2024-03-25T05:59:00;44.77;37.87;58.41;;
76382;Laerm;65202;52.520;10.528;2024-03-25T06:01:27;44.42;36.97;60.76;;
76382;Laerm;65202;52.520;10.528;2024-03-25T06:03:53;45.63;37.62;58.42;;
76382;Laerm;65202;52.520;10.528;2024-03-25T06:06:20;44.37;37.17;57.25;;
76382;Laerm;65202;52.520;10.528;2024-03-25T06:08:47;43.60;38.62;55.63;;
76382;Laerm;65202;52.520;10.528;2024-03-25T06:11:13;44.17;38.74;56.28;;
76382;Laerm;65202;52.520;10.528;2024-03-25T06:13:40;41.67;38.09;51.87;;
76382;Laerm;65202;52.520;10.528;2024-03-25T06:16:06;42.43;37.83;54.64;;
76382;Laerm;65202;52.520;10.528;2024-03-25T06:18:32;44.23;37.57;57.19;;
76382;Laerm;65202;52.520;10.528;2024-03-25T06:20:59;45.43;39.08;55.35;;
76382;Laerm;65202;52.520;10.528;2024-03-25T06:23:27;45.16;39.09;55.28;;
76382;Laerm;65202;52.520;10.528;2024-03-25T06:25:55;47.18;39.58;59.39;;
76382;Laerm;65202;52.520;10.528;2024-03-25T06:28:22;46.35;37.61;59.04;;
76382;Laerm;65202;52.520;10.528;2024-03-25T06:30:51;52.68;38.70;66.12;;
76382;Laerm;65202;52.520;10.528;2024-03-25T06:33:36;46.65;38.97;59.84;;
76382;Laerm;65202;52.520;10.528;2024-03-25T06:36:22;44.91;38.40;66.34;;
76382;Laerm;65202;52.520;10.528;2024-03-25T06:38:49;46.73;38.10;61.52;;
76382;Laerm;65202;52.520;10.528;2024-03-25T06:41:16;44.39;38.11;57.45;;
76382;Laerm;65202;52.520;10.528;2024-03-25T06:43:42;46.07;37.80;59.86;;
76382;Laerm;65202;52.520;10.528;2024-03-25T06:46:09;47.30;37.80;62.25;;
76382;Laerm;65202;52.520;10.528;2024-03-25T06:48:36;48.02;38.52;63.92;;
76382;Laerm;65202;52.520;10.528;2024-03-25T06:51:05;46.14;37.46;65.26;;
76382;Laerm;65202;52.520;10.528;2024-03-25T06:53:31;48.94;38.18;67.31;;
76382;Laerm;65202;52.520;10.528;2024-03-25T06:55:59;47.11;39.01;59.52;;
76382;Laerm;65202;52.520;10.528;2024-03-25T06:58:27;46.22;39.30;63.28;;
76382;Laerm;65202;52.520;10.528;2024-03-25T07:00:56;45.08;37.60;55.32;;
76382;Laerm;65202;52.520;10.528;2024-03-25T07:03:23;45.11;36.97;55.81;;
76382;Laerm;65202;52.520;10.528;2024-03-25T07:05:51;47.95;40.27;61.55;;
76382;Laerm;65202;52.520;10.528;2024-03-25T07:08:27;44.71;38.86;58.26;;
76382;Laerm;65202;52.520;10.528;2024-03-25T07:10:54;46.10;39.06;57.36;;
76382;Laerm;65202;52.520;10.528;2024-03-25T07:13:21;47.20;39.38;58.72;;
76382;Laerm;65202;52.520;10.528;2024-03-25T07:15:50;49.69;39.10;67.74;;
76382;Laerm;65202;52.520;10.528;2024-03-25T07:18:17;48.16;39.06;59.21;;
76382;Laerm;65202;52.520;10.528;2024-03-25T07:20:44;47.83;38.20;64.17;;
76382;Laerm;65202;52.520;10.528;2024-03-25T07:23:11;46.40;37.95;56.86;;
76382;Laerm;65202;52.520;10.528;2024-03-25T07:25:37;52.14;39.07;64.94;;
76382;Laerm;65202;52.520;10.528;2024-03-25T07:28:04;49.70;38.27;67.16;;
76382;Laerm;65202;52.520;10.528;2024-03-25T07:30:31;45.45;37.09;56.51;;
76382;Laerm;65202;52.520;10.528;2024-03-25T07:32:59;45.67;38.82;57.23;;
76382;Laerm;65202;52.520;10.528;2024-03-25T07:35:26;48.19;37.40;60.58;;
76382;Laerm;65202;52.520;10.528;2024-03-25T07:37:53;45.40;37.36;61.43;;
76382;Laerm;65202;52.520;10.528;2024-03-25T07:40:20;43.62;37.28;58.16;;
76382;Laerm;65202;52.520;10.528;2024-03-25T07:42:47;42.77;38.92;55.68;;
76382;Laerm;65202;52.520;10.528;2024-03-25T07:45:15;43.17;38.38;52.83;;
76382;Laerm;65202;52.520;10.528;2024-03-25T07:47:42;43.50;37.02;58.77;;
76382;Laerm;65202;52.520;10.528;2024-03-25T07:50:09;52.87;39.46;64.71;;
76382;Laerm;65202;52.520;10.528;2024-03-25T07:52:36;48.24;37.92;66.46;;
76382;Laerm;65202;52.520;10.528;2024-03-25T07:55:07;43.51;38.27;59.87;;
76382;Laerm;65202;52.520;10.528;2024-03-25T07:57:35;44.68;38.34;65.83;;
76382;Laerm;65202;52.520;10.528;2024-03-25T08:00:03;44.70;37.52;64.97;;
76382;Laerm;65202;52.520;10.528;2024-03-25T08:02:38;47.63;37.56;77.20;;
76382;Laerm;65202;52.520;10.528;2024-03-25T08:05:05;41.32;37.35;63.14;;
76382;Laerm;65202;52.520;10.528;2024-03-25T08:07:32;49.19;38.92;64.47;;
76382;Laerm;65202;52.520;10.528;2024-03-25T08:09:59;43.89;38.54;63.37;;
76382;Laerm;65202;52.520;10.528;2024-03-25T08:12:25;50.15;37.00;65.66;;
76382;Laerm;65202;52.520;10.528;2024-03-25T08:14:52;42.10;37.58;55.13;;
76382;Laerm;65202;52.520;10.528;2024-03-25T08:17:18;41.22;36.52;57.11;;
76382;Laerm;65202;52.520;10.528;2024-03-25T08:19:45;42.77;37.31;63.90;;
76382;Laerm;65202;52.520;10.528;2024-03-25T08:22:11;43.51;37.25;65.77;;
76382;Laerm;65202;52.520;10.528;2024-03-25T08:24:38;46.01;38.35;62.13;;
76382;Laerm;65202;52.520;10.528;2024-03-25T08:27:04;44.04;36.94;60.13;;
76382;Laerm;65202;52.520;10.528;2024-03-25T08:29:31;47.21;38.51;59.68;;
76382;Laerm;65202;52.520;10.528;2024-03-25T08:31:57;44.97;37.90;60.75;;
76382;Laerm;65202;52.520;10.528;2024-03-25T08:34:24;43.57;37.98;57.88;;
76382;Laerm;65202;52.520;10.528;2024-03-25T08:36:50;45.70;38.37;59.57;;
76382;Laerm;65202;52.520;10.528;2024-03-25T08:39:16;43.54;37.93;54.91;;
76382;Laerm;65202;52.520;10.528;2024-03-25T08:41:43;44.51;37.21;54.76;;
76382;Laerm;65202;52.520;10.528;2024-03-25T08:44:09;46.88;37.11;64.30;;
76382;Laerm;65202;52.520;10.528;2024-03-25T08:46:37;52.04;39.80;70.32;;
76382;Laerm;65202;52.520;10.528;2024-03-25T08:49:04;44.68;38.29;55.96;;
76382;Laerm;65202;52.520;10.528;2024-03-25T08:51:30;45.20;37.58;57.08;;
76382;Laerm;65202;52.520;10.528;2024-03-25T08:53:57;42.26;36.56;59.48;;
76382;Laerm;65202;52.520;10.528;2024-03-25T08:56:24;47.24;37.93;58.38;;
76382;Laerm;65202;52.520;10.528;2024-03-25T08:58:50;42.44;36.91;51.67;;
76382;Laerm;65202;52.520;10.528;2024-03-25T09:01:21;45.47;37.28;62.64;;
76382;Laerm;65202;52.520;10.528;2024-03-25T09:03:50;45.98;39.22;60.36;;
76382;Laerm;65202;52.520;10.528;2024-03-25T09:06:17;44.11;38.83;57.99;;
76382;Laerm;65202;52.520;10.528;2024-03-25T09:08:43;44.64;37.57;58.96;;
76382;Laerm;65202;52.520;10.528;2024-03-25T09:11:29;45.37;40.84;56.69;;
76382;Laerm;65202;52.520;10.528;2024-03-25T09:13:55;55.97;38.96;73.22;;
76382;Laerm;65202;52.520;10.528;2024-03-25T09:16:22;43.65;38.63;53.64;;
76382;Laerm;65202;52.520;10.528;2024-03-25T09:18:48;42.43;36.34;52.88;;
76382;Laerm;65202;52.520;10.528;2024-03-25T09:21:15;44.03;38.35;55.61;;
76382;Laerm;65202;52.520;10.528;2024-03-25T09:23:42;44.11;37.14;64.42;;
76382;Laerm;65202;52.520;10.528;2024-03-25T09:26:09;46.50;37.47;61.89;;
76382;Laerm;65202;52.520;10.528;2024-03-25T09:28:37;48.08;38.23;67.71;;
76382;Laerm;65202;52.520;10.528;2024-03-25T09:31:03;43.05;37.87;54.03;;
76382;Laerm;65202;52.520;10.528;2024-03-25T09:33:32;45.36;38.88;59.74;;
76382;Laerm;65202;52.520;10.528;2024-03-25T09:36:00;46.04;39.79;60.14;;
76382;Laerm;65202;52.520;10.528;2024-03-25T09:38:28;47.45;40.45;62.79;;
76382;Laerm;65202;52.520;10.528;2024-03-25T09:40:57;42.89;38.37;55.08;;
76382;Laerm;65202;52.520;10.528;2024-03-25T09:43:43;43.48;37.61;52.85;;
76382;Laerm;65202;52.520;10.528;2024-03-25T09:46:10;45.65;38.96;59.39;;
76382;Laerm;65202;52.520;10.528;2024-03-25T09:48:37;46.73;37.84;60.18;;
76382;Laerm;65202;52.520;10.528;2024-03-25T09:51:04;46.13;38.10;61.60;;
76382;Laerm;65202;52.520;10.528;2024-03-25T09:53:31;42.09;37.28;53.17;;
76382;Laerm;65202;52.520;10.528;2024-03-25T09:55:59;44.62;38.63;53.26;;
76382;Laerm;65202;52.520;10.528;2024-03-25T09:58:27;47.67;37.99;56.69;;
76382;Laerm;65202;52.520;10.528;2024-03-25T10:00:55;44.05;38.15;60.46;;
76382;Laerm;65202;52.520;10.528;2024-03-25T10:03:22;48.25;37.56;63.17;;
76382;Laerm;65202;52.520;10.528;2024-03-25T10:05:48;45.70;38.06;72.54;;
76382;Laerm;65202;52.520;10.528;2024-03-25T10:08:23;47.03;37.69;62.62;;
76382;Laerm;65202;52.520;10.528;2024-03-25T10:10:49;47.20;39.19;65.11;;
76382;Laerm;65202;52.520;10.528;2024-03-25T10:13:17;43.11;38.48;54.03;;
76382;Laerm;65202;52.520;10.528;2024-03-25T10:15:48;44.36;38.36;57.23;;
76382;Laerm;65202;52.520;10.528;2024-03-25T10:18:14;43.34;36.19;61.88;;
76382;Laerm;65202;52.520;10.528;2024-03-25T10:20:49;41.10;36.39;50.74;;
76382;Laerm;65202;52.520;10.528;2024-03-25T10:23:20;46.08;38.06;60.94;;
76382;Laerm;65202;52.520;10.528;2024-03-25T10:25:48;44.51;37.99;58.81;;
76382;Laerm;65202;52.520;10.528;2024-03-25T10:28:14;46.26;36.73;60.95;;
76382;Laerm;65202;52.520;10.528;2024-03-25T10:30:41;47.21;37.98;62.81;;
76382;Laerm;65202;52.520;10.528;2024-03-25T10:33:08;43.92;36.74;58.07;;
76382;Laerm;65202;52.520;10.528;2024-03-25T10:35:36;48.65;38.67;62.95;;
76382;Laerm;65202;52.520;10.528;2024-03-25T10:38:07;48.19;37.73;61.24;;
76382;Laerm;65202;52.520;10.528;2024-03-25T10:40:35;46.43;36.51;66.01;;
76382;Laerm;65202;52.520;10.528;2024-03-25T10:43:10;43.61;37.64;55.18;;
76382;Laerm;65202;52.520;10.528;2024-03-25T10:45:43;44.76;38.22;56.90;;
76382;Laerm;65202;52.520;10.528;2024-03-25T10:48:28;46.38;38.35;60.02;;
76382;Laerm;65202;52.520;10.528;2024-03-25T10:50:56;48.67;39.66;58.23;;
76382;Laerm;65202;52.520;10.528;2024-03-25T10:53:27;49.96;39.16;64.80;;
76382;Laerm;65202;52.520;10.528;2024-03-25T10:55:55;45.20;37.16;55.95;;
76382;Laerm;65202;52.520;10.528;2024-03-25T10:58:24;47.93;38.51;56.37;;
76382;Laerm;65202;52.520;10.528;2024-03-25T11:00:52;45.63;37.36;56.22;;
76382;Laerm;65202;52.520;10.528;2024-03-25T11:03:22;49.03;36.86;67.72;;
76382;Laerm;65202;52.520;10.528;2024-03-25T11:05:49;40.89;36.94;51.69;;
76382;Laerm;65202;52.520;10.528;2024-03-25T11:08:17;47.33;37.03;63.49;;
76382;Laerm;65202;52.520;10.528;2024-03-25T11:10:45;54.34;37.48;71.51;;
76382;Laerm;65202;52.520;10.528;2024-03-25T11:13:17;48.46;38.13;62.83;;
76382;Laerm;65202;52.520;10.528;2024-03-25T11:15:48;47.48;35.95;65.27;;
76382;Laerm;65202;52.520;10.528;2024-03-25T11:18:17;42.79;36.72;57.88;;
76382;Laerm;65202;52.520;10.528;2024-03-25T11:20:44;43.82;36.22;65.41;;
76382;Laerm;65202;52.520;10.528;2024-03-25T11:23:13;50.10;37.78;66.25;;
76382;Laerm;65202;52.520;10.528;2024-03-25T11:25:41;42.38;36.57;54.18;;
76382;Laerm;65202;52.520;10.528;2024-03-25T11:28:09;43.84;36.89;55.60;;
76382;Laerm;65202;52.520;10.528;2024-03-25T11:30:36;45.66;36.81;66.43;;
76382;Laerm;65202;52.520;10.528;2024-03-25T11:33:04;43.06;36.65;58.91;;
76382;Laerm;65202;52.520;10.528;2024-03-25T11:35:37;45.45;37.67;64.19;;
76382;Laerm;65202;52.520;10.528;2024-03-25T11:38:04;49.62;36.93;63.93;;
76382;Laerm;65202;52.520;10.528;2024-03-25T11:40:31;45.44;37.75;59.03;;
76382;Laerm;65202;52.520;10.528;2024-03-25T11:42:58;45.52;36.22;61.35;;
76382;Laerm;65202;52.520;10.528;2024-03-25T11:45:25;43.38;37.77;59.10;;
76382;Laerm;65202;52.520;10.528;2024-03-25T11:47:51;45.32;36.39;58.61;;
76382;Laerm;65202;52.520;10.528;2024-03-25T11:50:19;42.10;37.21;54.75;;
76382;Laerm;65202;52.520;10.528;2024-03-25T11:52:46;41.79;36.05;58.04;;
76382;Laerm;65202;52.520;10.528;2024-03-25T11:55:17;43.60;38.15;55.43;;
76382;Laerm;65202;52.520;10.528;2024-03-25T11:57:45;48.93;36.46;68.90;;
76382;Laerm;65202;52.520;10.528;2024-03-25T12:00:12;44.02;35.93;57.76;;
76382;Laerm;65202;52.520;10.528;2024-03-25T12:02:45;44.17;37.53;56.64;;
76382;Laerm;65202;52.520;10.528;2024-03-25T12:05:13;47.28;36.94;61.91;;
76382;Laerm;65202;52.520;10.528;2024-03-25T12:07:40;43.72;35.82;57.29;;
76382;Laerm;65202;52.520;10.528;2024-03-25T12:10:07;49.48;37.18;64.79;;
76382;Laerm;65202;52.520;10.528;2024-03-25T12:12:52;57.51;37.35;66.85;;
76382;Laerm;65202;52.520;10.528;2024-03-25T12:15:21;49.56;37.06;58.64;;
76382;Laerm;65202;52.520;10.528;2024-03-25T12:17:48;48.82;37.51;62.89;;
76382;Laerm;65202;52.520;10.528;2024-03-25T12:20:17;51.69;37.01;66.24;;
76382;Laerm;65202;52.520;10.528;2024-03-25T12:22:44;53.61;41.68;64.28;;
76382;Laerm;65202;52.520;10.528;2024-03-25T12:25:11;47.81;40.44;55.98;;
76382;Laerm;65202;52.520;10.528;2024-03-25T12:27:39;49.53;40.13;67.36;;
76382;Laerm;65202;52.520;10.528;2024-03-25T12:30:10;58.75;39.79;76.84;;
76382;Laerm;65202;52.520;10.528;2024-03-25T12:32:44;71.16;48.67;83.77;;
76382;Laerm;65202;52.520;10.528;2024-03-25T12:35:15;52.59;46.13;59.56;;
76382;Laerm;65202;52.520;10.528;2024-03-25T12:37:48;57.12;37.23;68.81;;
76382;Laerm;65202;52.520;10.528;2024-03-25T12:40:28;43.67;37.09;53.50;;
76382;Laerm;65202;52.520;10.528;2024-03-25T12:42:55;44.06;38.13;57.06;;
76382;Laerm;65202;52.520;10.528;2024-03-25T12:45:22;43.93;37.95;54.99;;
76382;Laerm;65202;52.520;10.528;2024-03-25T12:47:50;43.79;37.25;56.89;;
76382;Laerm;65202;52.520;10.528;2024-03-25T12:50:18;44.51;37.23;59.52;;
76382;Laerm;65202;52.520;10.528;2024-03-25T12:52:50;41.59;36.28;51.46;;
76382;Laerm;65202;52.520;10.528;2024-03-25T12:55:16;49.11;38.48;60.84;;
76382;Laerm;65202;52.520;10.528;2024-03-25T12:57:43;45.01;37.27;70.08;;
76382;Laerm;65202;52.520;10.528;2024-03-25T13:00:10;46.51;37.37;59.34;;
76382;Laerm;65202;52.520;10.528;2024-03-25T13:02:36;47.84;37.40;65.52;;
76382;Laerm;65202;52.520;10.528;2024-03-25T13:05:03;45.62;36.91;61.47;;
76382;Laerm;65202;52.520;10.528;2024-03-25T13:07:30;49.18;37.90;66.58;;
76382;Laerm;65202;52.520;10.528;2024-03-25T13:09:58;46.67;35.00;65.93;;
76382;Laerm;65202;52.520;10.528;2024-03-25T13:12:24;46.71;35.25;67.07;;
76382;Laerm;65202;52.520;10.528;2024-03-25T13:14:51;51.32;36.42;70.83;;
76382;Laerm;65202;52.520;10.528;2024-03-25T13:17:17;44.20;35.65;68.94;;
76382;Laerm;65202;52.520;10.528;2024-03-25T13:19:44;43.71;36.54;55.54;;
76382;Laerm;65202;52.520;10.528;2024-03-25T13:22:10;50.11;36.89;65.04;;
76382;Laerm;65202;52.520;10.528;2024-03-25T13:24:36;42.91;36.03;53.02;;
76382;Laerm;65202;52.520;10.528;2024-03-25T13:27:03;42.49;36.03;55.04;;
76382;Laerm;65202;52.520;10.528;2024-03-25T13:29:30;41.25;35.30;53.82;;
76382;Laerm;65202;52.520;10.528;2024-03-25T13:31:57;45.88;35.68;60.04;;
76382;Laerm;65202;52.520;10.528;2024-03-25T13:34:23;47.08;35.31;58.25;;